createdAt,value
2023-03-23T00:00:00.446Z,5.8
2023-03-23T00:15:00.507Z,5.6
2023-03-23T00:30:00.521Z,5.4
2023-03-23T00:45:00.785Z,5.2
2023-03-23T01:00:05.677Z,5.0
2023-03-23T01:15:00.488Z,5.0
2023-03-23T01:30:00.485Z,4.9
2023-03-23T01:45:00.548Z,4.7
2023-03-23T02:00:00.480Z,4.6
2023-03-23T02:15:00.636Z,4.3
2023-03-23T02:30:00.503Z,4.1
2023-03-23T02:45:00.552Z,4.0
2023-03-23T03:00:00.500Z,4.0
2023-03-23T03:15:00.478Z,4.0
2023-03-23T03:30:00.481Z,4.0
2023-03-23T03:45:00.531Z,4.0
2023-03-23T04:00:00.476Z,3.8
2023-03-23T04:15:06.169Z,3.7
2023-03-23T04:30:00.542Z,3.6
2023-03-23T04:45:00.512Z,3.4
2023-03-23T05:00:00.752Z,3.5
2023-03-23T05:15:00.480Z,3.5
2023-03-23T05:30:00.463Z,3.6
2023-03-23T05:45:00.530Z,3.7
2023-03-23T06:00:00.457Z,4.0
2023-03-23T06:15:00.522Z,4.4
2023-03-23T06:30:00.513Z,4.8
2023-03-23T06:45:00.561Z,5.3
2023-03-23T07:00:00.491Z,6.2
2023-03-23T07:15:00.574Z,7.0
2023-03-23T07:30:00.461Z,8.4
2023-03-23T07:45:00.768Z,9.4
2023-03-23T08:00:00.494Z,10.6
2023-03-23T08:15:00.461Z,11.4
2023-03-23T08:30:00.455Z,12.2
2023-03-23T08:45:00.546Z,12.9
2023-03-23T09:00:00.490Z,13.5
2023-03-23T09:15:00.493Z,14.4
2023-03-23T09:30:00.467Z,15.0
2023-03-23T09:45:00.540Z,15.5
2023-03-23T10:00:00.498Z,16.2
2023-03-23T10:15:00.496Z,16.8
2023-03-23T10:30:00.504Z,17.2
2023-03-23T10:45:00.565Z,17.5
2023-03-23T11:00:00.561Z,18.2
2023-03-23T11:15:00.516Z,18.6
2023-03-23T11:30:00.466Z,18.8
2023-03-23T11:45:00.498Z,18.9
2023-03-23T12:00:00.464Z,19.0
2023-03-23T12:15:00.517Z,19.0
2023-03-23T12:30:00.507Z,19.0
2023-03-23T12:45:00.563Z,19.2
2023-03-23T13:00:00.717Z,19.3
2023-03-23T13:15:00.510Z,19.2
2023-03-23T13:30:00.475Z,19.1
2023-03-23T13:45:00.551Z,19.2
2023-03-23T14:00:00.520Z,19.4
2023-03-23T14:15:00.470Z,19.4
2023-03-23T14:30:00.471Z,19.5
2023-03-23T14:45:00.555Z,19.5
2023-03-23T15:00:00.503Z,19.4
2023-03-23T15:15:00.870Z,19.4
2023-03-23T15:30:00.547Z,19.4
2023-03-23T15:45:00.562Z,19.4
2023-03-23T16:00:00.498Z,19.6
2023-03-23T16:15:00.483Z,19.7
2023-03-23T16:30:04.089Z,19.3
2023-03-23T16:45:00.470Z,18.8
2023-03-23T17:00:00.578Z,17.8
2023-03-23T17:15:00.491Z,17.0
2023-03-23T17:30:00.478Z,16.1
2023-03-23T17:45:00.490Z,15.4
2023-03-23T18:00:00.449Z,14.7
2023-03-23T18:15:00.592Z,14.1
2023-03-23T18:30:00.461Z,13.6
2023-03-23T18:45:00.524Z,13.0
2023-03-23T19:00:00.494Z,12.4
2023-03-23T19:15:00.451Z,12.0
2023-03-23T19:30:00.534Z,11.6
2023-03-23T19:45:00.496Z,11.2
2023-03-23T20:00:00.481Z,10.8
2023-03-23T20:15:00.533Z,10.5
2023-03-23T20:30:03.841Z,10.3
2023-03-23T20:45:00.531Z,10.0
2023-03-23T21:00:00.464Z,9.8
2023-03-23T21:15:00.481Z,9.5
2023-03-23T21:30:00.475Z,9.2
2023-03-23T21:45:00.524Z,9.0
2023-03-23T22:00:00.475Z,8.8
2023-03-23T22:15:00.498Z,8.5
2023-03-23T22:30:00.490Z,8.4
2023-03-23T22:45:00.534Z,8.2
2023-03-23T23:00:00.489Z,8.0
2023-03-23T23:15:00.465Z,7.8
2023-03-23T23:30:00.457Z,7.7
2023-03-23T23:45:00.537Z,7.7
